createdAt,value
2022-11-16T00:02:14.294Z,7.65
2022-11-16T00:04:42.389Z,8.00
2022-11-16T00:07:10.340Z,9.20
2022-11-16T00:09:37.699Z,9.75
2022-11-16T00:12:08.891Z,8.95
2022-11-16T00:14:36.833Z,9.15
2022-11-16T00:17:05.011Z,9.50
2022-11-16T00:19:32.713Z,8.88
2022-11-16T00:22:05.589Z,9.70
2022-11-16T00:24:32.837Z,10.05
2022-11-16T00:27:00.671Z,10.82
2022-11-16T00:29:28.977Z,9.82
2022-11-16T00:31:56.449Z,10.02
2022-11-16T00:34:24.442Z,10.23
2022-11-16T00:36:52.231Z,11.02
2022-11-16T00:39:19.726Z,11.48
2022-11-16T00:41:48.251Z,11.73
2022-11-16T00:44:15.808Z,9.63
2022-11-16T00:46:43.532Z,10.48
2022-11-16T00:49:10.850Z,11.57
2022-11-16T00:51:38.807Z,12.48
2022-11-16T00:54:08.460Z,13.27
2022-11-16T00:56:37.505Z,12.13
2022-11-16T00:59:04.886Z,12.15
2022-11-16T01:01:32.319Z,13.77
2022-11-16T01:03:59.998Z,13.48
2022-11-16T01:06:27.824Z,13.23
2022-11-16T01:08:54.990Z,11.65
2022-11-16T01:11:40.868Z,14.20
2022-11-16T01:14:09.240Z,12.52
2022-11-16T01:16:36.690Z,13.35
2022-11-16T01:19:05.916Z,14.27
2022-11-16T01:21:33.880Z,14.40
2022-11-16T01:24:01.088Z,12.82
2022-11-16T01:26:29.365Z,14.18
2022-11-16T01:28:58.649Z,15.45
2022-11-16T01:31:26.616Z,13.52
2022-11-16T01:33:55.105Z,14.60
2022-11-16T01:36:22.824Z,14.30
2022-11-16T01:38:50.766Z,14.20
2022-11-16T01:41:24.108Z,14.43
2022-11-16T01:44:05.243Z,14.38
2022-11-16T01:46:33.440Z,14.27
2022-11-16T01:49:16.453Z,14.43
2022-11-16T01:51:48.375Z,14.85
2022-11-16T01:54:17.626Z,12.98
2022-11-16T01:56:49.270Z,17.35
2022-11-16T01:59:17.512Z,14.48
2022-11-16T02:01:45.407Z,16.75
2022-11-16T02:04:13.254Z,16.83
2022-11-16T02:06:59.042Z,16.20
2022-11-16T02:10:07.742Z,15.73
2022-11-16T02:12:38.066Z,16.20
2022-11-16T02:15:13.870Z,15.88
2022-11-16T02:18:04.654Z,14.90
2022-11-16T02:21:00.839Z,17.10
2022-11-16T02:23:40.442Z,17.60
2022-11-16T02:26:49.119Z,17.42
2022-11-16T02:29:37.912Z,16.40
2022-11-16T02:32:22.989Z,17.83
2022-11-16T02:34:58.350Z,17.05
2022-11-16T02:37:30.488Z,17.00
2022-11-16T02:40:03.334Z,19.77
2022-11-16T02:42:35.969Z,18.00
2022-11-16T02:45:08.938Z,15.18
2022-11-16T02:47:38.562Z,17.85
2022-11-16T02:50:12.715Z,18.30
2022-11-16T02:52:39.859Z,18.80
2022-11-16T02:55:07.608Z,18.98
2022-11-16T02:57:48.240Z,18.27
2022-11-16T03:00:20.138Z,18.40
2022-11-16T03:03:04.252Z,16.40
2022-11-16T03:05:36.889Z,18.63
2022-11-16T03:08:14.879Z,18.58
2022-11-16T03:11:06.048Z,18.20
2022-11-16T03:13:36.143Z,17.58
2022-11-16T03:16:13.296Z,19.50
2022-11-16T03:18:42.272Z,16.20
2022-11-16T03:23:54.652Z,17.33
2022-11-16T03:26:29.216Z,19.30
2022-11-16T03:29:03.556Z,19.42
2022-11-16T03:31:39.598Z,20.25
2022-11-16T03:34:12.817Z,17.20
2022-11-16T03:36:44.034Z,18.67
2022-11-16T03:39:17.359Z,18.17
2022-11-16T03:41:47.641Z,19.92
2022-11-16T03:44:16.970Z,19.48
2022-11-16T03:46:45.432Z,17.80
2022-11-16T03:49:12.715Z,18.55
2022-11-16T03:51:40.803Z,19.75
2022-11-16T03:54:07.820Z,18.67
2022-11-16T03:56:35.511Z,19.17
2022-11-16T03:59:02.546Z,18.50
2022-11-16T04:01:29.978Z,19.38
2022-11-16T04:03:56.985Z,18.90
2022-11-16T04:06:42.932Z,17.33
2022-11-16T04:09:29.381Z,19.90
2022-11-16T04:12:15.773Z,18.73
2022-11-16T04:15:01.950Z,19.73
2022-11-16T04:18:08.340Z,18.85
2022-11-16T04:20:54.571Z,17.95
2022-11-16T04:23:41.052Z,20.30
2022-11-16T04:26:10.452Z,18.45
2022-11-16T04:28:39.836Z,19.67
2022-11-16T04:31:25.684Z,21.17
2022-11-16T04:34:12.550Z,19.42
2022-11-16T04:36:57.957Z,19.88
2022-11-16T04:39:25.233Z,21.20
2022-11-16T04:42:10.732Z,18.52
2022-11-16T04:44:57.317Z,18.42
2022-11-16T04:47:24.563Z,20.05
2022-11-16T04:49:53.780Z,19.83
2022-11-16T04:52:21.355Z,19.52
2022-11-16T04:54:48.792Z,20.70
2022-11-16T04:57:16.115Z,20.52
2022-11-16T04:59:44.083Z,21.70
2022-11-16T05:02:11.292Z,20.20
2022-11-16T05:04:41.277Z,21.55
2022-11-16T05:07:12.075Z,20.60
2022-11-16T05:09:47.296Z,19.58
2022-11-16T05:12:19.076Z,19.70
2022-11-16T05:14:50.447Z,19.33
2022-11-16T05:17:20.930Z,22.20
2022-11-16T05:20:08.044Z,21.88
2022-11-16T05:22:35.634Z,20.15
2022-11-16T05:25:04.735Z,21.73
2022-11-16T05:27:31.816Z,20.58
2022-11-16T05:29:59.393Z,21.77
2022-11-16T05:32:31.233Z,23.20
2022-11-16T05:34:58.717Z,20.48
2022-11-16T05:37:30.260Z,18.90
2022-11-16T05:40:00.138Z,19.88
2022-11-16T05:42:27.925Z,19.58
2022-11-16T05:47:38.123Z,20.73
2022-11-16T05:50:10.382Z,18.33
2022-11-16T05:52:37.447Z,21.58
2022-11-16T05:55:05.502Z,19.05
2022-11-16T05:57:32.544Z,18.60
2022-11-16T05:59:59.864Z,19.05
2022-11-16T06:02:27.501Z,20.08
2022-11-16T06:04:54.792Z,19.90
2022-11-16T06:07:21.910Z,21.17
2022-11-16T06:09:49.410Z,20.75
2022-11-16T06:12:16.573Z,19.15
2022-11-16T06:14:43.939Z,18.25
2022-11-16T06:17:14.493Z,18.88
2022-11-16T06:19:44.711Z,19.10
2022-11-16T06:22:12.017Z,19.88
2022-11-16T06:24:39.325Z,21.05
2022-11-16T06:27:06.387Z,18.77
2022-11-16T06:29:38.326Z,19.48
2022-11-16T06:32:07.521Z,18.75
2022-11-16T06:34:47.248Z,20.85
2022-11-16T06:37:14.382Z,19.40
2022-11-16T06:39:44.546Z,19.80
2022-11-16T06:42:11.719Z,20.10
2022-11-16T06:44:47.373Z,21.30
2022-11-16T06:47:14.325Z,20.92
2022-11-16T06:49:43.473Z,18.10
2022-11-16T06:52:10.707Z,19.08
2022-11-16T06:54:46.457Z,18.20
2022-11-16T06:57:30.467Z,17.98
2022-11-16T07:02:40.770Z,19.20
2022-11-16T07:05:09.454Z,18.88
2022-11-16T07:07:36.850Z,17.30
2022-11-16T07:10:08.052Z,19.38
2022-11-16T07:12:36.379Z,19.92
2022-11-16T07:15:07.905Z,21.50
2022-11-16T07:17:45.096Z,18.23
2022-11-16T07:20:16.310Z,20.08
2022-11-16T07:22:43.329Z,21.08
2022-11-16T07:25:12.697Z,19.77
2022-11-16T07:30:16.900Z,19.23
2022-11-16T07:32:45.110Z,17.95
2022-11-16T07:35:18.185Z,19.08
2022-11-16T07:37:50.151Z,20.90
2022-11-16T07:40:17.673Z,18.42
2022-11-16T07:42:48.903Z,18.70
2022-11-16T07:45:18.610Z,19.73
2022-11-16T07:47:57.499Z,19.10
2022-11-16T07:50:28.055Z,18.77
2022-11-16T07:52:56.059Z,18.00
2022-11-16T07:55:34.686Z,18.48
2022-11-16T07:58:08.916Z,19.40
2022-11-16T08:00:37.092Z,19.35
2022-11-16T08:03:06.397Z,18.95
2022-11-16T08:05:33.939Z,18.15
2022-11-16T08:08:01.221Z,19.65
2022-11-16T08:10:30.360Z,17.50
2022-11-16T08:12:57.641Z,18.38
2022-11-16T08:15:25.931Z,18.90
2022-11-16T08:17:59.265Z,19.67
2022-11-16T08:20:28.598Z,19.25
2022-11-16T08:22:59.642Z,19.70
2022-11-16T08:25:31.148Z,17.63
2022-11-16T08:27:58.306Z,17.20
2022-11-16T08:30:25.716Z,19.67
2022-11-16T08:32:53.679Z,18.92
2022-11-16T08:35:24.211Z,19.20
2022-11-16T08:43:34.236Z,19.67
2022-11-16T08:46:05.965Z,19.80
2022-11-16T08:48:34.717Z,19.90
2022-11-16T08:53:58.610Z,18.75
2022-11-16T08:56:30.321Z,19.23
2022-11-16T08:58:59.837Z,20.55
2022-11-16T09:01:29.429Z,21.08
2022-11-16T09:03:56.979Z,20.33
2022-11-16T09:06:26.456Z,19.75
2022-11-16T09:11:22.736Z,18.50
2022-11-16T09:13:52.140Z,18.08
2022-11-16T09:16:21.124Z,19.55
2022-11-16T09:18:52.084Z,18.63
2022-11-16T09:21:22.432Z,17.70
2022-11-16T09:23:50.218Z,17.70
2022-11-16T09:26:21.246Z,20.23
2022-11-16T09:28:56.334Z,20.63
2022-11-16T09:31:24.758Z,18.05
2022-11-16T09:33:51.801Z,19.92
2022-11-16T09:36:20.749Z,17.10
2022-11-16T09:39:23.805Z,18.90
2022-11-16T09:41:52.205Z,18.67
2022-11-16T09:44:31.485Z,20.83
2022-11-16T09:47:01.322Z,18.27
2022-11-16T09:49:45.025Z,20.25
2022-11-16T09:52:21.202Z,20.40
2022-11-16T09:54:49.863Z,21.65
2022-11-16T09:57:33.659Z,19.77
2022-11-16T10:00:13.774Z,18.70
2022-11-16T10:02:47.901Z,18.13
2022-11-16T10:06:10.620Z,18.67
2022-11-16T10:08:46.394Z,18.83
2022-11-16T10:11:52.582Z,17.75
2022-11-16T10:14:41.205Z,17.50
2022-11-16T10:17:56.362Z,17.17
2022-11-16T10:20:47.809Z,19.40
2022-11-16T10:23:28.753Z,20.58
2022-11-16T10:30:01.598Z,18.70
2022-11-16T10:32:32.986Z,18.05
2022-11-16T10:35:10.502Z,19.50
2022-11-16T10:37:59.971Z,19.45
2022-11-16T10:40:36.126Z,18.73
2022-11-16T10:43:13.885Z,18.80
2022-11-16T10:45:47.487Z,17.83
2022-11-16T10:48:37.156Z,18.23
2022-11-16T10:51:05.527Z,17.23
2022-11-16T10:53:37.084Z,17.45
2022-11-16T10:56:37.294Z,18.83
2022-11-16T10:59:09.559Z,18.65
2022-11-16T11:01:51.579Z,17.33
2022-11-16T11:04:28.774Z,18.27
2022-11-16T11:07:40.295Z,19.75
2022-11-16T11:10:39.894Z,18.30
2022-11-16T11:13:11.422Z,17.48
2022-11-16T11:15:45.976Z,19.25
2022-11-16T11:18:27.178Z,19.90
2022-11-16T11:24:57.992Z,16.58
2022-11-16T11:27:34.216Z,18.63
2022-11-16T11:30:02.307Z,19.05
2022-11-16T11:32:40.240Z,15.70
2022-11-16T11:35:23.802Z,19.20
2022-11-16T11:37:55.845Z,18.15
2022-11-16T11:43:23.973Z,17.73
2022-11-16T11:46:06.363Z,18.67
2022-11-16T11:48:48.116Z,16.48
2022-11-16T11:51:35.258Z,17.60
2022-11-16T11:54:05.415Z,18.25
2022-11-16T11:56:34.306Z,17.88
2022-11-16T11:59:05.084Z,16.45
2022-11-16T12:01:56.638Z,18.05
2022-11-16T12:05:04.230Z,17.95
2022-11-16T12:08:02.079Z,17.88
2022-11-16T12:10:35.188Z,18.50
2022-11-16T12:16:13.439Z,16.00
2022-11-16T12:19:06.942Z,16.50
2022-11-16T12:21:49.264Z,16.85
2022-11-16T12:24:40.346Z,16.85
2022-11-16T12:27:41.211Z,17.33
2022-11-16T12:30:18.472Z,17.13
2022-11-16T12:33:05.184Z,17.02
2022-11-16T12:35:45.628Z,17.98
2022-11-16T12:38:30.180Z,17.73
2022-11-16T12:41:35.077Z,17.65
2022-11-16T12:44:11.942Z,14.73
2022-11-16T12:46:39.708Z,17.77
2022-11-16T12:49:34.814Z,17.40
2022-11-16T12:52:27.933Z,17.25
2022-11-16T12:55:26.288Z,18.50
2022-11-16T12:58:24.849Z,18.92
2022-11-16T13:01:10.854Z,16.48
2022-11-16T13:03:50.173Z,17.98
2022-11-16T13:06:21.228Z,18.02
2022-11-16T13:12:00.042Z,17.73
2022-11-16T13:14:38.689Z,19.77
2022-11-16T13:17:22.964Z,21.52
2022-11-16T13:20:15.538Z,17.63
2022-11-16T13:22:53.654Z,18.67
2022-11-16T13:25:31.894Z,18.27
2022-11-16T13:28:23.513Z,19.42
2022-11-16T13:31:14.700Z,19.60
2022-11-16T13:33:51.230Z,18.33
2022-11-16T13:36:37.452Z,16.35
2022-11-16T13:39:08.172Z,19.13
2022-11-16T13:41:40.581Z,17.85
2022-11-16T13:44:21.081Z,21.02
2022-11-16T13:46:56.314Z,20.48
2022-11-16T13:49:33.294Z,20.63
2022-11-16T13:52:40.406Z,20.10
2022-11-16T13:55:41.415Z,19.50
2022-11-16T13:58:39.335Z,18.55
2022-11-16T14:01:18.966Z,16.85
2022-11-16T14:03:52.223Z,18.08
2022-11-16T14:12:40.417Z,17.27
2022-11-16T14:15:24.502Z,16.83
2022-11-16T14:17:58.339Z,19.08
2022-11-16T14:20:37.810Z,18.63
2022-11-16T14:23:20.569Z,17.08
2022-11-16T14:25:57.004Z,20.02
2022-11-16T14:28:52.501Z,18.42
2022-11-16T14:31:30.053Z,19.30
2022-11-16T14:34:00.456Z,18.40
2022-11-16T14:36:49.826Z,18.98
2022-11-16T14:39:28.620Z,20.65
2022-11-16T14:42:03.742Z,19.58
2022-11-16T14:44:37.954Z,19.10
2022-11-16T14:47:29.431Z,21.92
2022-11-16T14:49:57.168Z,20.00
2022-11-16T14:52:30.703Z,19.88
2022-11-16T14:55:03.878Z,19.63
2022-11-16T14:57:31.502Z,16.80
2022-11-16T15:03:12.495Z,19.67
2022-11-16T15:05:39.773Z,18.80
2022-11-16T15:08:17.496Z,20.20
2022-11-16T15:10:52.625Z,21.52
2022-11-16T15:16:26.038Z,20.08
2022-11-16T15:19:02.472Z,18.13
2022-11-16T15:21:30.030Z,22.35
2022-11-16T15:26:45.737Z,20.58
2022-11-16T15:29:33.645Z,21.70
2022-11-16T15:32:02.202Z,21.20
2022-11-16T15:34:31.663Z,17.55
2022-11-16T15:39:34.510Z,20.70
2022-11-16T15:42:04.882Z,21.67
2022-11-16T15:44:33.959Z,25.17
2022-11-16T15:47:04.000Z,25.42
2022-11-16T15:49:36.367Z,23.60
2022-11-16T15:52:07.854Z,25.35
2022-11-16T15:54:55.331Z,23.55
2022-11-16T15:57:24.153Z,23.35
2022-11-16T15:59:55.075Z,25.38
2022-11-16T16:02:28.189Z,23.10
2022-11-16T16:04:56.279Z,23.65
2022-11-16T16:07:45.871Z,23.60
2022-11-16T16:10:19.739Z,24.05
2022-11-16T16:12:51.767Z,22.67
2022-11-16T16:15:36.234Z,25.42
2022-11-16T16:18:16.056Z,25.23
2022-11-16T16:20:48.577Z,21.52
2022-11-16T16:23:16.913Z,24.05
2022-11-16T16:25:50.062Z,22.40
2022-11-16T16:28:17.819Z,24.20
2022-11-16T16:33:30.379Z,25.10
2022-11-16T16:35:57.430Z,26.42
2022-11-16T16:38:26.415Z,23.52
2022-11-16T16:43:37.614Z,26.33
2022-11-16T16:46:07.752Z,23.23
2022-11-16T16:48:41.747Z,25.13
2022-11-16T16:51:12.970Z,26.08
2022-11-16T16:53:45.196Z,25.60
2022-11-16T16:56:19.690Z,27.00
2022-11-16T16:58:47.254Z,28.48
2022-11-16T17:01:19.676Z,26.23
2022-11-16T17:04:01.651Z,27.55
2022-11-16T17:06:32.765Z,26.50
2022-11-16T17:08:59.961Z,26.98
2022-11-16T17:11:27.422Z,26.20
2022-11-16T17:13:54.986Z,27.05
2022-11-16T17:16:23.178Z,26.63
2022-11-16T17:18:56.811Z,28.85
2022-11-16T17:21:24.346Z,28.35
2022-11-16T17:23:51.476Z,30.33
2022-11-16T17:26:20.431Z,26.42
2022-11-16T17:28:48.609Z,29.92
2022-11-16T17:31:18.971Z,34.60
2022-11-16T17:33:46.842Z,30.42
2022-11-16T17:36:14.882Z,31.60
2022-11-16T17:38:42.230Z,33.85
2022-11-16T17:41:39.840Z,37.80
2022-11-16T17:44:07.341Z,33.13
2022-11-16T17:46:35.209Z,32.17
2022-11-16T17:49:02.469Z,32.53
2022-11-16T17:51:43.505Z,38.88
2022-11-16T17:54:13.095Z,37.28
2022-11-16T17:59:30.864Z,32.95
2022-11-16T18:02:00.804Z,32.42
2022-11-16T18:04:28.021Z,30.88
2022-11-16T18:06:57.330Z,32.47
2022-11-16T18:09:26.430Z,29.50
2022-11-16T18:11:54.242Z,30.23
2022-11-16T18:14:30.702Z,28.48
2022-11-16T18:17:07.800Z,28.00
2022-11-16T18:19:34.953Z,28.23
2022-11-16T18:22:13.337Z,27.65
2022-11-16T18:24:40.622Z,30.10
2022-11-16T18:29:49.552Z,27.95
2022-11-16T18:32:20.300Z,28.85
2022-11-16T18:34:49.095Z,30.63
2022-11-16T18:37:18.166Z,30.50
2022-11-16T18:39:45.930Z,30.58
2022-11-16T18:42:16.789Z,29.67
2022-11-16T18:44:48.338Z,29.15
2022-11-16T18:47:15.789Z,27.90
2022-11-16T18:49:43.186Z,29.52
2022-11-16T18:52:10.972Z,28.58
2022-11-16T18:54:38.347Z,28.48
2022-11-16T18:59:47.700Z,28.05
2022-11-16T19:02:16.452Z,35.53
2022-11-16T19:04:44.351Z,24.85
2022-11-16T19:10:01.912Z,25.23
2022-11-16T19:30:16.445Z,18.73
2022-11-16T19:32:44.827Z,25.85
2022-11-16T19:35:47.573Z,22.80
2022-11-16T19:38:34.675Z,23.20
2022-11-16T19:41:02.550Z,24.10
2022-11-16T19:43:32.151Z,22.63
2022-11-16T19:46:23.720Z,28.35
2022-11-16T19:48:59.757Z,24.73
2022-11-16T19:51:33.990Z,27.15
2022-11-16T19:54:11.971Z,24.85
2022-11-16T19:56:42.324Z,26.27
2022-11-16T19:59:13.107Z,26.45
2022-11-16T20:01:43.438Z,24.65
2022-11-16T20:04:10.690Z,26.08
2022-11-16T20:06:39.072Z,27.30
2022-11-16T20:09:12.418Z,23.17
2022-11-16T20:11:43.460Z,27.70
2022-11-16T20:14:12.179Z,24.77
2022-11-16T20:16:41.552Z,24.70
2022-11-16T20:19:19.224Z,23.73
2022-11-16T20:21:57.802Z,24.20
2022-11-16T20:24:32.094Z,24.73
2022-11-16T20:27:02.338Z,23.20
2022-11-16T20:29:33.956Z,22.52
2022-11-16T20:32:09.697Z,24.67
2022-11-16T20:34:42.844Z,26.98
2022-11-16T20:37:17.848Z,29.38
2022-11-16T20:39:52.710Z,28.00
2022-11-16T20:42:24.328Z,26.35
2022-11-16T20:44:56.574Z,27.00
2022-11-16T20:47:24.159Z,26.38
2022-11-16T20:49:53.146Z,24.40
2022-11-16T20:52:20.814Z,23.33
2022-11-16T20:54:47.873Z,26.60
2022-11-16T20:57:15.353Z,27.17
2022-11-16T20:59:42.629Z,27.20
2022-11-16T21:02:11.668Z,27.27
2022-11-16T21:04:38.860Z,28.27
2022-11-16T21:07:06.513Z,24.52
2022-11-16T21:09:53.713Z,27.33
2022-11-16T21:12:42.772Z,26.73
2022-11-16T21:15:28.159Z,24.42
2022-11-16T21:17:55.536Z,26.38
2022-11-16T21:20:29.698Z,25.35
2022-11-16T21:22:57.146Z,27.88
2022-11-16T21:25:24.292Z,27.42
2022-11-16T21:27:52.265Z,28.52
2022-11-16T21:30:20.047Z,31.27
2022-11-16T21:32:47.379Z,30.50
2022-11-16T21:35:16.241Z,31.98
2022-11-16T21:37:45.332Z,26.67
2022-11-16T21:40:53.751Z,29.25
2022-11-16T21:43:21.390Z,29.17
2022-11-16T21:45:49.986Z,28.83
2022-11-16T21:48:17.798Z,27.58
2022-11-16T21:50:44.837Z,29.48
2022-11-16T21:53:12.163Z,31.25
2022-11-16T21:55:48.679Z,29.50
2022-11-16T21:58:15.989Z,31.75
2022-11-16T22:00:43.227Z,27.88
2022-11-16T22:03:12.138Z,33.25
2022-11-16T22:06:00.320Z,28.50
2022-11-16T22:08:29.944Z,25.85
2022-11-16T22:10:59.235Z,29.13
2022-11-16T22:13:26.624Z,28.27
2022-11-16T22:15:54.083Z,28.45
2022-11-16T22:18:21.051Z,29.35
2022-11-16T22:20:50.201Z,29.92
2022-11-16T22:23:21.550Z,26.58
2022-11-16T22:25:53.426Z,28.75
2022-11-16T22:28:22.023Z,29.70
2022-11-16T22:30:51.927Z,26.55
2022-11-16T22:33:19.552Z,27.92
2022-11-16T22:35:47.350Z,28.35
2022-11-16T22:38:16.023Z,29.25
2022-11-16T22:40:57.087Z,27.73
2022-11-16T22:43:26.909Z,28.15
2022-11-16T22:46:01.378Z,30.13
2022-11-16T22:48:34.483Z,26.15
2022-11-16T22:51:26.422Z,30.58
2022-11-16T22:54:01.591Z,30.75
2022-11-16T22:56:31.066Z,35.85
2022-11-16T22:58:58.668Z,26.27
2022-11-16T23:01:26.149Z,33.78
2022-11-16T23:03:55.634Z,28.70
2022-11-16T23:06:23.124Z,28.52
2022-11-16T23:08:51.292Z,27.25
2022-11-16T23:11:40.745Z,29.73
2022-11-16T23:14:30.332Z,24.67
2022-11-16T23:16:59.331Z,24.63
2022-11-16T23:19:46.313Z,25.83
2022-11-16T23:22:35.395Z,26.33
2022-11-16T23:25:22.227Z,25.45
2022-11-16T23:27:55.291Z,23.75
2022-11-16T23:30:22.647Z,23.75
2022-11-16T23:32:50.110Z,21.10
2022-11-16T23:35:17.833Z,22.00
2022-11-16T23:37:52.364Z,21.88
2022-11-16T23:40:20.160Z,22.73
2022-11-16T23:43:05.968Z,22.13
2022-11-16T23:45:33.360Z,24.67
2022-11-16T23:48:01.273Z,24.25
2022-11-16T23:50:28.479Z,23.45
2022-11-16T23:52:56.186Z,24.15
2022-11-16T23:55:23.296Z,21.38
2022-11-16T23:57:51.414Z,20.15
